createdAt,value
2023-04-07T00:01:26.234Z,14.63
2023-04-07T00:03:34.017Z,15.52
2023-04-07T00:05:39.336Z,17.05
2023-04-07T00:07:52.980Z,16.45
2023-04-07T00:10:01.310Z,16.27
2023-04-07T00:12:07.355Z,15.52
2023-04-07T00:14:12.399Z,16.08
2023-04-07T00:16:17.983Z,15.10
2023-04-07T00:18:23.023Z,14.10
2023-04-07T00:20:30.850Z,14.57
2023-04-07T00:22:36.385Z,15.40
2023-04-07T00:24:41.384Z,14.32
2023-04-07T00:26:46.667Z,16.00
2023-04-07T00:28:52.231Z,14.50
2023-04-07T00:30:57.525Z,14.85
2023-04-07T00:33:03.038Z,15.05
2023-04-07T00:35:09.427Z,16.42
2023-04-07T00:37:17.496Z,15.45
2023-04-07T00:39:23.048Z,17.35
2023-04-07T00:41:28.680Z,15.45
2023-04-07T00:43:33.765Z,15.60
2023-04-07T00:45:40.424Z,16.33
2023-04-07T00:47:46.296Z,14.02
2023-04-07T00:49:51.605Z,18.17
2023-04-07T00:51:57.668Z,15.55
2023-04-07T00:54:05.666Z,13.43
2023-04-07T00:56:11.373Z,12.98
2023-04-07T00:58:16.983Z,15.00
2023-04-07T01:00:22.846Z,12.63
2023-04-07T01:02:37.117Z,9.38
2023-04-07T01:04:50.171Z,11.02
2023-04-07T01:07:00.042Z,9.60
2023-04-07T01:09:22.242Z,11.85
2023-04-07T01:11:33.454Z,11.60
2023-04-07T01:13:46.110Z,9.57
2023-04-07T01:16:01.202Z,9.93
2023-04-07T01:18:18.400Z,10.40
2023-04-07T01:20:29.673Z,8.32
2023-04-07T01:22:46.546Z,11.32
2023-04-07T01:26:11.305Z,9.82
2023-04-07T01:28:47.691Z,11.90
2023-04-07T01:30:59.707Z,13.50
2023-04-07T01:33:07.550Z,11.23
2023-04-07T01:35:16.650Z,13.88
2023-04-07T01:37:23.180Z,12.32
2023-04-07T01:39:29.901Z,14.20
2023-04-07T01:41:36.390Z,11.48
2023-04-07T01:43:45.120Z,14.30
2023-04-07T01:45:51.605Z,12.88
2023-04-07T01:48:00.367Z,12.23
2023-04-07T01:50:07.240Z,14.13
2023-04-07T01:52:14.178Z,16.27
2023-04-07T01:54:20.528Z,13.40
2023-04-07T01:56:25.790Z,13.80
2023-04-07T01:58:32.879Z,14.80
2023-04-07T02:00:38.239Z,13.30
2023-04-07T02:02:53.568Z,14.23
2023-04-07T02:05:07.932Z,14.25
2023-04-07T02:07:22.599Z,15.05
2023-04-07T02:09:32.912Z,14.75
2023-04-07T02:11:38.877Z,16.48
2023-04-07T02:13:45.417Z,13.27
2023-04-07T02:15:52.907Z,16.42
2023-04-07T02:18:02.348Z,16.77
2023-04-07T02:20:12.846Z,14.18
2023-04-07T02:22:19.222Z,20.38
2023-04-07T02:24:25.283Z,13.98
2023-04-07T02:26:30.696Z,17.80
2023-04-07T02:28:36.675Z,16.15
2023-04-07T02:30:42.067Z,17.73
2023-04-07T02:32:47.215Z,19.30
2023-04-07T02:34:52.919Z,18.65
2023-04-07T02:37:01.012Z,15.82
2023-04-07T02:39:06.820Z,17.13
2023-04-07T02:41:11.862Z,21.08
2023-04-07T02:43:19.208Z,15.73
2023-04-07T02:45:24.490Z,16.63
2023-04-07T02:47:29.526Z,17.67
2023-04-07T02:49:34.852Z,16.17
2023-04-07T02:51:39.868Z,16.60
2023-04-07T02:53:47.470Z,15.45
2023-04-07T02:55:52.610Z,15.30
2023-04-07T02:57:57.668Z,15.27
2023-04-07T03:00:17.964Z,15.40
2023-04-07T03:02:38.679Z,14.10
2023-04-07T03:04:45.722Z,16.33
2023-04-07T03:06:51.120Z,15.18
2023-04-07T03:08:58.735Z,17.27
2023-04-07T03:11:04.086Z,14.20
2023-04-07T03:13:10.575Z,16.60
2023-04-07T03:15:18.757Z,15.73
2023-04-07T03:17:25.956Z,15.90
2023-04-07T03:19:31.166Z,14.10
2023-04-07T03:21:36.305Z,16.40
2023-04-07T03:23:41.910Z,17.40
2023-04-07T03:25:49.898Z,17.20
2023-04-07T03:27:55.290Z,16.23
2023-04-07T03:30:01.473Z,14.43
2023-04-07T03:32:07.491Z,16.23
2023-04-07T03:34:12.876Z,14.43
2023-04-07T03:36:18.048Z,21.30
2023-04-07T03:38:24.563Z,15.75
2023-04-07T03:40:36.142Z,16.73
2023-04-07T03:42:43.834Z,15.10
2023-04-07T03:44:51.608Z,14.43
2023-04-07T03:46:56.660Z,18.13
2023-04-07T03:49:03.109Z,15.95
2023-04-07T03:51:10.794Z,17.77
2023-04-07T03:53:16.981Z,16.90
2023-04-07T03:55:23.173Z,14.70
2023-04-07T03:57:31.493Z,15.50
2023-04-07T03:59:39.129Z,15.00
2023-04-07T04:01:45.237Z,20.20
2023-04-07T04:03:54.243Z,15.02
2023-04-07T04:06:04.922Z,16.15
2023-04-07T04:08:11.156Z,14.07
2023-04-07T04:10:19.003Z,17.42
2023-04-07T04:12:27.716Z,15.25
2023-04-07T04:14:44.961Z,17.17
2023-04-07T04:16:52.573Z,15.43
2023-04-07T04:19:20.524Z,14.32
2023-04-07T04:21:27.369Z,16.50
2023-04-07T04:23:32.448Z,15.10
2023-04-07T04:25:39.732Z,15.05
2023-04-07T04:27:47.036Z,14.73
2023-04-07T04:30:07.144Z,16.50
2023-04-07T04:32:38.624Z,15.90
2023-04-07T04:34:44.698Z,14.68
2023-04-07T04:36:51.427Z,16.27
2023-04-07T04:38:58.024Z,14.93
2023-04-07T04:41:03.089Z,18.05
2023-04-07T04:43:09.934Z,14.93
2023-04-07T04:45:20.496Z,14.15
2023-04-07T04:47:27.361Z,16.25
2023-04-07T04:49:32.564Z,15.30
2023-04-07T04:51:40.418Z,16.95
2023-04-07T04:53:52.170Z,21.10
2023-04-07T04:55:59.384Z,17.17
2023-04-07T04:58:23.980Z,16.58
2023-04-07T05:00:35.625Z,16.25
2023-04-07T05:02:43.976Z,16.73
2023-04-07T05:04:49.657Z,17.00
2023-04-07T05:07:01.852Z,16.50
2023-04-07T05:09:09.835Z,15.85
2023-04-07T05:11:21.566Z,15.15
2023-04-07T05:13:31.236Z,15.10
2023-04-07T05:15:43.708Z,14.00
2023-04-07T05:17:51.520Z,19.15
2023-04-07T05:20:01.851Z,15.60
2023-04-07T05:22:24.627Z,17.40
2023-04-07T05:24:31.995Z,17.88
2023-04-07T05:26:39.246Z,20.85
2023-04-07T05:28:44.703Z,16.98
2023-04-07T05:30:57.929Z,15.60
2023-04-07T05:33:07.905Z,16.05
2023-04-07T05:35:26.460Z,19.23
2023-04-07T05:37:34.689Z,17.13
2023-04-07T05:39:42.436Z,16.02
2023-04-07T05:41:51.139Z,18.77
2023-04-07T05:43:57.573Z,19.80
2023-04-07T05:46:08.101Z,17.23
2023-04-07T05:48:18.837Z,17.42
2023-04-07T05:50:26.058Z,18.35
2023-04-07T05:52:31.597Z,20.48
2023-04-07T05:54:47.324Z,20.17
2023-04-07T05:56:53.674Z,18.65
2023-04-07T05:59:02.036Z,24.13
2023-04-07T06:01:10.600Z,23.70
2023-04-07T06:03:15.693Z,24.70
2023-04-07T06:05:31.467Z,22.67
2023-04-07T06:07:36.631Z,23.10
2023-04-07T06:09:43.239Z,26.77
2023-04-07T06:11:48.345Z,26.13
2023-04-07T06:13:54.373Z,28.08
2023-04-07T06:15:59.989Z,27.58
2023-04-07T06:18:07.681Z,24.98
2023-04-07T06:20:14.347Z,26.15
2023-04-07T06:22:19.399Z,22.95
2023-04-07T06:24:25.694Z,25.85
2023-04-07T06:26:30.860Z,27.80
2023-04-07T06:28:36.276Z,27.98
2023-04-07T06:30:41.732Z,26.55
2023-04-07T06:32:49.913Z,23.48
2023-04-07T06:34:57.685Z,28.38
2023-04-07T06:37:03.948Z,28.75
2023-04-07T06:39:09.257Z,27.40
2023-04-07T06:41:17.216Z,28.65
2023-04-07T06:43:22.500Z,24.90
2023-04-07T06:45:33.491Z,28.88
2023-04-07T06:47:38.580Z,30.40
2023-04-07T06:49:44.201Z,24.88
2023-04-07T06:51:51.851Z,30.25
2023-04-07T06:53:57.114Z,24.10
2023-04-07T06:56:09.810Z,27.08
2023-04-07T06:58:15.166Z,25.92
2023-04-07T07:00:23.334Z,29.00
2023-04-07T07:02:28.526Z,22.02
2023-04-07T07:04:34.049Z,27.05
2023-04-07T07:06:39.544Z,26.58
2023-04-07T07:08:47.127Z,25.85
2023-04-07T07:10:52.751Z,23.65
2023-04-07T07:12:57.767Z,25.77
2023-04-07T07:15:03.506Z,25.70
2023-04-07T07:17:08.506Z,26.73
2023-04-07T07:19:14.602Z,23.00
2023-04-07T07:21:21.510Z,26.20
2023-04-07T07:23:26.511Z,26.30
2023-04-07T07:25:34.623Z,24.00
2023-04-07T07:27:39.707Z,21.05
2023-04-07T07:29:44.985Z,21.83
2023-04-07T07:31:50.618Z,23.23
2023-04-07T07:33:56.280Z,21.27
2023-04-07T07:36:01.811Z,20.58
2023-04-07T07:38:06.935Z,20.10
2023-04-07T07:40:12.936Z,23.23
2023-04-07T07:42:21.217Z,20.48
2023-04-07T07:44:26.297Z,20.95
2023-04-07T07:46:31.856Z,20.55
2023-04-07T07:48:36.932Z,22.73
2023-04-07T07:50:42.950Z,23.05
2023-04-07T07:52:48.023Z,21.90
2023-04-07T07:54:54.275Z,22.08
2023-04-07T07:57:00.273Z,20.25
2023-04-07T07:59:09.201Z,19.77
2023-04-07T08:01:14.232Z,23.77
2023-04-07T08:03:22.766Z,18.90
2023-04-07T08:05:28.157Z,20.80
2023-04-07T08:07:33.617Z,21.33
2023-04-07T08:09:38.600Z,21.63
2023-04-07T08:11:44.610Z,21.38
2023-04-07T08:13:49.912Z,20.60
2023-04-07T08:15:57.848Z,17.88
2023-04-07T08:18:04.899Z,21.67
2023-04-07T08:20:13.090Z,20.17
2023-04-07T08:22:20.018Z,20.98
2023-04-07T08:24:25.067Z,19.25
2023-04-07T08:26:30.503Z,20.20
2023-04-07T08:28:35.547Z,18.48
2023-04-07T08:30:40.829Z,19.77
2023-04-07T08:32:49.011Z,19.70
2023-04-07T08:34:54.090Z,20.40
2023-04-07T08:36:59.493Z,18.25
2023-04-07T08:39:05.855Z,17.42
2023-04-07T08:41:15.373Z,18.92
2023-04-07T08:43:23.509Z,17.98
2023-04-07T08:45:29.210Z,17.90
2023-04-07T08:47:37.483Z,18.23
2023-04-07T08:49:47.682Z,20.10
2023-04-07T08:51:55.665Z,17.35
2023-04-07T08:54:09.645Z,18.90
2023-04-07T08:56:15.869Z,18.67
2023-04-07T08:58:22.209Z,19.45
2023-04-07T09:00:27.630Z,20.65
2023-04-07T09:02:34.225Z,19.27
2023-04-07T09:04:39.481Z,19.23
2023-04-07T09:06:47.121Z,18.58
2023-04-07T09:08:52.374Z,18.85
2023-04-07T09:10:57.916Z,16.85
2023-04-07T09:13:03.263Z,20.58
2023-04-07T09:15:10.933Z,19.23
2023-04-07T09:17:16.536Z,21.23
2023-04-07T09:19:22.224Z,19.85
2023-04-07T09:21:27.338Z,19.20
2023-04-07T09:23:37.804Z,19.83
2023-04-07T09:25:42.833Z,17.05
2023-04-07T09:28:02.423Z,22.23
2023-04-07T09:30:15.908Z,19.50
2023-04-07T09:32:39.774Z,16.85
2023-04-07T09:34:45.299Z,17.02
2023-04-07T09:36:50.308Z,20.00
2023-04-07T09:38:58.151Z,17.52
2023-04-07T09:41:10.697Z,16.45
2023-04-07T09:43:20.353Z,17.83
2023-04-07T09:47:38.371Z,20.00
2023-04-07T09:49:54.684Z,17.33
2023-04-07T09:52:05.065Z,17.10
2023-04-07T09:54:12.865Z,17.20
2023-04-07T09:56:19.851Z,17.13
2023-04-07T09:58:24.943Z,20.23
2023-04-07T10:00:30.780Z,16.50
2023-04-07T10:02:36.295Z,16.23
2023-04-07T10:04:42.569Z,17.13
2023-04-07T10:06:48.825Z,15.95
2023-04-07T10:08:54.123Z,16.65
2023-04-07T10:11:02.893Z,18.75
2023-04-07T10:13:09.189Z,16.58
2023-04-07T10:15:17.146Z,19.23
2023-04-07T10:17:23.298Z,17.98
2023-04-07T10:19:32.643Z,16.23
2023-04-07T10:21:42.418Z,16.85
2023-04-07T10:23:57.064Z,15.90
2023-04-07T10:26:06.852Z,16.05
2023-04-07T10:28:14.700Z,18.65
2023-04-07T10:30:26.086Z,15.98
2023-04-07T10:32:31.719Z,20.73
2023-04-07T10:35:03.897Z,15.77
2023-04-07T10:37:18.006Z,17.02
2023-04-07T10:39:25.712Z,15.85
2023-04-07T10:41:42.158Z,18.67
2023-04-07T10:43:47.375Z,17.55
2023-04-07T10:46:02.303Z,17.60
2023-04-07T10:48:14.424Z,18.30
2023-04-07T10:50:24.990Z,18.90
2023-04-07T10:52:31.007Z,16.02
2023-04-07T10:54:36.514Z,17.42
2023-04-07T10:57:14.501Z,16.77
2023-04-07T10:59:27.912Z,17.98
2023-04-07T11:01:35.037Z,19.90
2023-04-07T11:03:42.487Z,18.20
2023-04-07T11:05:47.735Z,15.40
2023-04-07T11:08:06.064Z,14.38
2023-04-07T11:10:16.090Z,15.00
2023-04-07T11:12:31.415Z,16.63
2023-04-07T11:14:37.852Z,14.73
2023-04-07T11:16:46.110Z,13.05
2023-04-07T11:18:52.419Z,13.48
2023-04-07T11:20:59.669Z,11.40
2023-04-07T11:23:04.698Z,13.48
2023-04-07T11:25:27.854Z,13.00
2023-04-07T11:27:36.680Z,10.57
2023-04-07T11:29:43.842Z,12.55
2023-04-07T11:31:51.826Z,11.45
2023-04-07T11:33:59.074Z,12.07
2023-04-07T11:36:05.859Z,10.30
2023-04-07T11:38:11.410Z,12.02
2023-04-07T11:40:34.451Z,11.32
2023-04-07T11:42:46.788Z,14.13
2023-04-07T11:44:51.840Z,13.38
2023-04-07T11:46:58.841Z,13.60
2023-04-07T11:49:14.518Z,12.98
2023-04-07T11:51:20.924Z,10.52
2023-04-07T11:53:32.198Z,11.15
2023-04-07T11:55:37.356Z,10.75
2023-04-07T11:57:44.996Z,13.40
2023-04-07T11:59:49.980Z,11.45
2023-04-07T12:01:57.731Z,12.27
2023-04-07T12:04:05.183Z,11.75
2023-04-07T12:06:10.992Z,11.65
2023-04-07T12:08:17.685Z,12.60
2023-04-07T12:10:23.886Z,11.13
2023-04-07T12:12:30.663Z,12.05
2023-04-07T12:14:39.150Z,17.20
2023-04-07T12:16:44.178Z,11.27
2023-04-07T12:18:49.463Z,15.80
2023-04-07T12:20:54.488Z,15.35
2023-04-07T12:23:00.615Z,12.68
2023-04-07T12:25:05.629Z,14.07
2023-04-07T12:27:11.153Z,11.57
2023-04-07T12:29:16.370Z,12.15
2023-04-07T12:31:24.576Z,13.30
2023-04-07T12:33:29.746Z,11.45
2023-04-07T12:35:35.513Z,11.02
2023-04-07T12:37:40.555Z,10.15
2023-04-07T12:39:45.545Z,11.18
2023-04-07T12:41:53.348Z,11.45
2023-04-07T12:43:58.540Z,13.63
2023-04-07T12:46:03.567Z,11.32
2023-04-07T12:48:11.195Z,15.07
2023-04-07T12:50:16.232Z,13.30
2023-04-07T12:52:21.237Z,12.02
2023-04-07T12:54:26.239Z,13.40
2023-04-07T12:56:31.738Z,12.32
2023-04-07T12:58:36.860Z,11.32
2023-04-07T13:00:42.987Z,10.70
2023-04-07T13:02:48.477Z,10.45
2023-04-07T13:04:56.298Z,11.57
2023-04-07T13:07:03.190Z,10.15
2023-04-07T13:09:08.245Z,11.02
2023-04-07T13:11:13.285Z,8.68
2023-04-07T13:13:18.456Z,11.98
2023-04-07T13:15:23.550Z,11.18
2023-04-07T13:17:29.152Z,8.70
2023-04-07T13:19:35.557Z,8.55
2023-04-07T13:21:47.260Z,8.38
2023-04-07T13:23:53.486Z,7.10
2023-04-07T13:25:58.504Z,12.38
2023-04-07T13:28:03.581Z,7.72
2023-04-07T13:30:10.988Z,9.98
2023-04-07T13:32:17.119Z,9.32
2023-04-07T13:34:22.184Z,7.15
2023-04-07T13:36:28.872Z,6.32
2023-04-07T13:38:36.787Z,7.88
2023-04-07T13:40:41.947Z,5.35
2023-04-07T13:42:47.051Z,9.85
2023-04-07T13:44:54.573Z,6.35
2023-04-07T13:47:00.454Z,7.15
2023-04-07T13:49:06.453Z,7.38
2023-04-07T13:51:12.709Z,11.70
2023-04-07T13:53:19.219Z,7.22
2023-04-07T13:55:27.088Z,4.43
2023-04-07T13:57:32.103Z,2.85
2023-04-07T13:59:37.218Z,5.55
2023-04-07T14:01:42.471Z,2.33
2023-04-07T14:03:48.325Z,4.15
2023-04-07T14:05:53.625Z,1.40
2023-04-07T14:07:58.620Z,4.20
2023-04-07T14:10:03.636Z,2.17
2023-04-07T14:12:11.310Z,2.50
2023-04-07T14:14:16.401Z,4.07
2023-04-07T14:16:21.835Z,5.07
2023-04-07T14:18:28.158Z,7.65
2023-04-07T14:20:33.423Z,3.00
2023-04-07T14:22:38.544Z,4.43
2023-04-07T14:24:44.115Z,2.92
2023-04-07T14:26:51.226Z,5.43
2023-04-07T14:28:59.192Z,5.97
2023-04-07T14:31:04.283Z,6.53
2023-04-07T14:33:09.439Z,2.90
2023-04-07T14:35:14.595Z,5.28
2023-04-07T14:37:24.214Z,2.67
2023-04-07T14:39:29.594Z,4.15
2023-04-07T14:41:34.832Z,7.57
2023-04-07T14:43:39.896Z,4.65
2023-04-07T14:45:47.552Z,4.75
2023-04-07T14:47:52.899Z,5.25
2023-04-07T14:49:58.268Z,8.02
2023-04-07T14:52:03.659Z,4.63
2023-04-07T14:54:08.717Z,5.13
2023-04-07T14:56:13.768Z,8.30
2023-04-07T14:58:19.402Z,5.22
2023-04-07T15:00:25.453Z,6.07
2023-04-07T15:02:33.230Z,6.13
2023-04-07T15:04:38.773Z,6.13
2023-04-07T15:06:47.225Z,7.28
2023-04-07T15:08:52.601Z,6.00
2023-04-07T15:10:58.230Z,6.53
2023-04-07T15:13:03.410Z,6.00
2023-04-07T15:15:09.888Z,6.68
2023-04-07T15:17:14.944Z,7.35
2023-04-07T15:19:22.985Z,7.72
2023-04-07T15:21:28.821Z,9.25
2023-04-07T15:23:34.055Z,6.78
2023-04-07T15:25:39.131Z,8.13
2023-04-07T15:27:44.189Z,7.35
2023-04-07T15:29:49.163Z,6.20
2023-04-07T15:31:54.265Z,6.70
2023-04-07T15:33:59.316Z,6.43
2023-04-07T15:36:07.633Z,8.00
2023-04-07T15:38:13.782Z,7.28
2023-04-07T15:40:19.258Z,6.38
2023-04-07T15:42:24.259Z,8.52
2023-04-07T15:44:29.272Z,8.68
2023-04-07T15:46:34.733Z,7.82
2023-04-07T15:48:39.880Z,6.18
2023-04-07T15:50:45.004Z,8.10
2023-04-07T15:52:52.765Z,6.85
2023-04-07T15:54:58.824Z,7.53
2023-04-07T15:57:03.931Z,12.05
2023-04-07T15:59:09.148Z,12.50
2023-04-07T16:01:14.837Z,12.82
2023-04-07T16:03:20.253Z,8.25
2023-04-07T16:05:25.594Z,7.93
2023-04-07T16:07:30.767Z,8.75
2023-04-07T16:09:38.676Z,7.68
2023-04-07T16:11:43.685Z,8.70
2023-04-07T16:13:48.806Z,8.13
2023-04-07T16:15:57.763Z,8.45
2023-04-07T16:18:03.410Z,7.63
2023-04-07T16:20:14.648Z,7.22
2023-04-07T16:22:20.100Z,8.20
2023-04-07T16:24:25.257Z,10.18
2023-04-07T16:26:33.042Z,8.15
2023-04-07T16:28:39.287Z,12.88
2023-04-07T16:30:45.393Z,11.88
2023-04-07T16:32:50.917Z,10.43
2023-04-07T16:34:56.694Z,10.07
2023-04-07T16:37:01.885Z,10.55
2023-04-07T16:39:07.348Z,9.90
2023-04-07T16:41:12.337Z,8.23
2023-04-07T16:43:20.279Z,9.32
2023-04-07T16:45:25.276Z,9.60
2023-04-07T16:47:31.106Z,7.82
2023-04-07T16:49:36.181Z,9.43
2023-04-07T16:51:41.344Z,9.65
2023-04-07T16:53:46.716Z,11.02
2023-04-07T16:55:51.961Z,9.75
2023-04-07T16:57:56.988Z,20.00
2023-04-07T17:00:04.725Z,15.23
2023-04-07T17:02:11.923Z,8.40
2023-04-07T17:04:17.488Z,10.68
2023-04-07T17:06:23.282Z,13.15
2023-04-07T17:08:28.390Z,8.57
2023-04-07T17:10:34.373Z,10.60
2023-04-07T17:12:40.094Z,10.13
2023-04-07T17:14:45.915Z,7.60
2023-04-07T17:16:53.540Z,8.85
2023-04-07T17:18:58.546Z,8.70
2023-04-07T17:21:03.546Z,10.82
2023-04-07T17:23:09.425Z,15.52
2023-04-07T17:25:14.624Z,9.15
2023-04-07T17:27:20.614Z,10.13
2023-04-07T17:29:29.158Z,12.05
2023-04-07T17:31:35.964Z,10.65
2023-04-07T17:33:43.644Z,9.93
2023-04-07T17:35:51.030Z,8.45
2023-04-07T17:37:56.698Z,14.10
2023-04-07T17:40:03.718Z,8.90
2023-04-07T17:42:11.216Z,12.77
2023-04-07T17:44:18.329Z,10.93
2023-04-07T17:46:26.045Z,11.40
2023-04-07T17:48:32.329Z,25.63
2023-04-07T17:50:40.472Z,14.43
2023-04-07T17:52:45.730Z,15.45
2023-04-07T17:54:51.079Z,11.10
2023-04-07T17:56:56.578Z,9.90
2023-04-07T17:59:01.760Z,10.65
2023-04-07T18:01:07.101Z,9.13
2023-04-07T18:03:14.647Z,12.15
2023-04-07T18:05:20.927Z,10.57
2023-04-07T18:07:29.421Z,12.05
2023-04-07T18:09:34.642Z,12.75
2023-04-07T18:11:40.291Z,10.23
2023-04-07T18:13:45.321Z,14.60
2023-04-07T18:15:51.190Z,11.98
2023-04-07T18:17:56.331Z,11.80
2023-04-07T18:20:02.242Z,15.80
2023-04-07T18:22:10.144Z,11.68
2023-04-07T18:24:17.833Z,11.98
2023-04-07T18:26:22.821Z,26.67
2023-04-07T18:28:27.931Z,27.35
2023-04-07T18:30:33.128Z,12.73
2023-04-07T18:32:38.160Z,10.45
2023-04-07T18:34:43.666Z,12.00
2023-04-07T18:36:49.720Z,12.38
2023-04-07T18:38:54.797Z,15.40
2023-04-07T18:41:02.486Z,16.90
2023-04-07T18:43:07.537Z,17.40
2023-04-07T18:45:13.483Z,13.40
2023-04-07T18:47:19.044Z,13.73
2023-04-07T18:49:24.750Z,11.50
2023-04-07T18:51:31.875Z,12.63
2023-04-07T18:53:36.882Z,13.10
2023-04-07T18:55:41.900Z,13.10
2023-04-07T18:57:49.956Z,14.95
2023-04-07T18:59:55.467Z,13.50
2023-04-07T19:02:01.057Z,14.77
2023-04-07T19:04:06.300Z,17.45
2023-04-07T19:06:12.331Z,15.68
2023-04-07T19:08:18.165Z,19.75
2023-04-07T19:10:23.714Z,13.20
2023-04-07T19:12:28.931Z,15.05
2023-04-07T19:14:36.510Z,14.80
2023-04-07T19:16:41.957Z,18.45
2023-04-07T19:18:47.619Z,15.20
2023-04-07T19:20:52.620Z,15.10
2023-04-07T19:22:57.602Z,13.40
2023-04-07T19:25:02.625Z,14.93
2023-04-07T19:27:08.163Z,16.45
2023-04-07T19:29:13.797Z,14.95
2023-04-07T19:31:21.402Z,16.83
2023-04-07T19:33:26.676Z,12.10
2023-04-07T19:35:31.760Z,15.18
2023-04-07T19:37:38.001Z,11.73
2023-04-07T19:39:52.194Z,15.98
2023-04-07T19:44:18.616Z,20.23
2023-04-07T19:46:26.337Z,19.25
2023-04-07T19:48:32.905Z,13.55
2023-04-07T19:50:43.716Z,12.65
2023-04-07T19:52:50.466Z,19.95
2023-04-07T19:54:56.069Z,14.60
2023-04-07T19:57:01.839Z,14.25
2023-04-07T19:59:07.363Z,13.32
2023-04-07T20:01:19.588Z,12.80
2023-04-07T20:03:27.349Z,8.93
2023-04-07T20:05:32.463Z,14.02
2023-04-07T20:07:37.508Z,15.93
2023-04-07T20:09:42.740Z,15.10
2023-04-07T20:11:48.281Z,14.60
2023-04-07T20:13:53.497Z,14.40
2023-04-07T20:15:58.648Z,12.88
2023-04-07T20:18:03.900Z,17.52
2023-04-07T20:20:13.462Z,15.52
2023-04-07T20:22:18.616Z,12.05
2023-04-07T20:24:23.884Z,17.63
2023-04-07T20:26:28.936Z,12.68
2023-04-07T20:28:34.208Z,14.75
2023-04-07T20:30:39.232Z,12.57
2023-04-07T20:32:46.089Z,12.13
2023-04-07T20:34:52.283Z,12.18
2023-04-07T20:37:01.689Z,13.05
2023-04-07T20:39:07.116Z,13.32
2023-04-07T20:41:16.729Z,14.07
2023-04-07T20:43:23.980Z,15.20
2023-04-07T20:45:29.189Z,21.33
2023-04-07T20:47:36.722Z,14.77
2023-04-07T20:49:44.389Z,15.90
2023-04-07T20:51:49.427Z,17.33
2023-04-07T20:53:57.211Z,17.77
2023-04-07T20:56:03.105Z,15.95
2023-04-07T20:58:08.312Z,16.95
2023-04-07T21:00:14.572Z,18.58
2023-04-07T21:02:19.638Z,13.02
2023-04-07T21:04:25.098Z,17.63
2023-04-07T21:06:30.171Z,14.13
2023-04-07T21:08:35.349Z,20.08
2023-04-07T21:10:42.915Z,14.60
2023-04-07T21:12:47.927Z,14.43
2023-04-07T21:14:53.430Z,15.68
2023-04-07T21:16:58.450Z,16.70
2023-04-07T21:19:03.945Z,15.55
2023-04-07T21:21:09.177Z,22.45
2023-04-07T21:23:14.204Z,19.90
2023-04-07T21:25:19.942Z,16.60
2023-04-07T21:27:27.659Z,14.70
2023-04-07T21:29:33.686Z,14.40
2023-04-07T21:31:39.270Z,15.00
2023-04-07T21:33:44.452Z,14.32
2023-04-07T21:35:49.851Z,14.23
2023-04-07T21:37:54.946Z,15.10
2023-04-07T21:40:00.516Z,16.02
2023-04-07T21:42:06.049Z,14.10
2023-04-07T21:44:20.166Z,16.30
2023-04-07T21:46:25.202Z,14.68
2023-04-07T21:48:30.466Z,14.75
2023-04-07T21:50:35.691Z,17.92
2023-04-07T21:52:42.593Z,16.65
2023-04-07T21:54:47.961Z,21.15
2023-04-07T21:56:52.949Z,18.63
2023-04-07T21:58:58.457Z,19.75
2023-04-07T22:01:07.171Z,16.77
2023-04-07T22:03:12.677Z,20.77
2023-04-07T22:05:18.444Z,25.90
2023-04-07T22:07:23.456Z,24.25
2023-04-07T22:09:29.908Z,22.10
2023-04-07T22:11:34.960Z,24.88
2023-04-07T22:13:40.224Z,27.40
2023-04-07T22:15:45.397Z,26.50
2023-04-07T22:17:53.381Z,28.88
2023-04-07T22:19:58.773Z,29.08
2023-04-07T22:22:03.774Z,31.67
2023-04-07T22:24:09.082Z,29.33
2023-04-07T22:26:14.500Z,34.83
2023-04-07T22:28:19.807Z,32.53
2023-04-07T22:30:25.900Z,29.85
2023-04-07T22:32:31.092Z,27.52
2023-04-07T22:34:38.944Z,21.77
2023-04-07T22:36:44.664Z,18.67
2023-04-07T22:38:49.897Z,17.15
2023-04-07T22:40:55.816Z,16.60
2023-04-07T22:43:01.468Z,16.13
2023-04-07T22:45:08.634Z,10.65
2023-04-07T22:47:13.651Z,11.88
2023-04-07T22:49:18.656Z,13.73
2023-04-07T22:51:27.470Z,13.73
2023-04-07T22:53:32.502Z,13.23
2023-04-07T22:55:38.410Z,23.13
2023-04-07T22:57:43.410Z,14.88
2023-04-07T22:59:48.398Z,17.90
2023-04-07T23:01:56.312Z,15.15
2023-04-07T23:04:02.848Z,14.10
2023-04-07T23:06:08.433Z,44.65
2023-04-07T23:08:16.170Z,14.65
2023-04-07T23:10:21.837Z,12.98
2023-04-07T23:12:27.062Z,14.82
2023-04-07T23:14:32.056Z,16.42
2023-04-07T23:16:37.890Z,16.45
2023-04-07T23:18:43.328Z,15.55
2023-04-07T23:20:54.363Z,17.42
2023-04-07T23:22:59.346Z,16.60
2023-04-07T23:25:08.407Z,21.95
2023-04-07T23:27:13.413Z,18.45
2023-04-07T23:29:18.419Z,18.65
2023-04-07T23:31:24.056Z,15.15
2023-04-07T23:33:29.062Z,19.13
2023-04-07T23:35:34.369Z,17.95
2023-04-07T23:37:39.882Z,18.02
2023-04-07T23:39:44.898Z,22.92
2023-04-07T23:41:52.738Z,18.08
2023-04-07T23:43:57.768Z,19.38
2023-04-07T23:46:03.369Z,27.00
2023-04-07T23:48:09.676Z,18.33
2023-04-07T23:50:14.925Z,18.05
2023-04-07T23:52:21.867Z,20.80
2023-04-07T23:54:27.294Z,20.73
2023-04-07T23:56:32.550Z,21.30
2023-04-07T23:58:40.674Z,22.98
